Time;durP1;ratioP1;P1;durP2;ratioP2;P2;SDS_P1;SDS_P2;PMS_P1;PMS_P2;Temp;Humidity;BMP_temperature;BMP_pressure;BME280_temperature;BME280_humidity;BME280_pressure;Samples;Min_cycle;Max_cycle;Signal;HPM_P1;HPM_P2
2024/01/23 00:00:54;;;;;;;23.65;3.15;;;7.90;99.90;;;;;;4964950;28;20038;-80
2024/01/23 00:03:43;;;;;;;25.65;3.45;;;7.80;99.90;;;;;;4959576;28;20061;-80
2024/01/23 00:06:14;;;;;;;10.43;2.60;;;7.80;99.90;;;;;;4953897;28;20041;-80
2024/01/23 00:08:56;;;;;;;9.30;1.80;;;7.80;99.90;;;;;;4913877;28;20062;-80
2024/01/23 00:11:32;;;;;;;9.63;2.72;;;7.80;99.90;;;;;;4948619;28;20078;-79
2024/01/23 00:14:09;;;;;;;12.60;1.35;;;7.70;99.90;;;;;;4961791;28;20042;-79
2024/01/23 00:16:35;;;;;;;21.13;3.75;;;7.70;99.90;;;;;;4961289;28;20042;-79
2024/01/23 00:19:00;;;;;;;13.43;2.30;;;7.60;99.90;;;;;;4973737;28;20278;-79
2024/01/23 00:21:26;;;;;;;9.57;2.20;;;7.50;99.90;;;;;;4979363;28;20125;-80
2024/01/23 00:23:51;;;;;;;22.17;3.53;;;7.60;99.90;;;;;;4960544;28;20030;-77
2024/01/23 00:26:22;;;;;;;20.23;3.15;;;7.50;99.90;;;;;;4962079;28;20026;-79
2024/01/23 00:28:48;;;;;;;13.68;2.50;;;7.50;99.90;;;;;;4935971;28;20537;-79
2024/01/23 00:31:22;;;;;;;16.55;2.22;;;7.50;99.90;;;;;;4938556;28;20031;-79
2024/01/23 00:33:48;;;;;;;15.18;2.70;;;7.40;99.90;;;;;;4945734;28;20134;-78
2024/01/23 00:36:13;;;;;;;14.38;3.05;;;7.40;99.90;;;;;;4959705;28;20098;-79
2024/01/23 00:38:39;;;;;;;13.27;3.00;;;7.30;99.90;;;;;;4943476;28;20697;-79
2024/01/23 00:41:14;;;;;;;10.38;2.63;;;7.30;99.90;;;;;;4959215;28;20434;-79
2024/01/23 00:43:40;;;;;;;13.27;3.53;;;7.30;99.90;;;;;;4939146;28;20573;-79
2024/01/23 00:46:14;;;;;;;7.68;2.10;;;7.20;99.90;;;;;;4938022;28;20039;-79
2024/01/23 00:48:48;;;;;;;18.83;2.63;;;7.20;99.90;;;;;;4970350;28;20126;-80
2024/01/23 00:51:19;;;;;;;13.13;1.88;;;7.10;99.90;;;;;;4939429;28;20102;-79
2024/01/23 00:53:45;;;;;;;16.02;3.03;;;7.20;99.90;;;;;;4948359;28;20100;-79
2024/01/23 00:56:13;;;;;;;21.58;2.45;;;7.20;99.90;;;;;;4958092;28;20030;-79
2024/01/23 00:58:38;;;;;;;10.57;2.70;;;7.20;99.90;;;;;;4926251;28;20506;-80
2024/01/23 01:01:04;;;;;;;8.85;2.30;;;7.20;99.90;;;;;;4936186;28;20041;-80
2024/01/23 01:03:30;;;;;;;6.13;2.33;;;7.10;99.90;;;;;;4979170;28;20049;-79
2024/01/23 01:05:56;;;;;;;15.20;2.53;;;7.10;99.90;;;;;;4955842;28;20034;-79
2024/01/23 01:08:21;;;;;;;19.85;2.67;;;7.10;99.90;;;;;;4963249;28;20049;-79
2024/01/23 01:10:47;;;;;;;18.42;2.70;;;7.10;99.90;;;;;;4963322;28;20035;-79
2024/01/23 01:13:12;;;;;;;13.98;2.13;;;7.20;99.90;;;;;;4947380;28;20033;-80
2024/01/23 01:15:38;;;;;;;21.55;2.72;;;7.10;99.90;;;;;;4965222;28;20407;-80
2024/01/23 01:18:06;;;;;;;12.30;2.63;;;7.00;99.90;;;;;;4979565;28;20383;-79
2024/01/23 01:20:32;;;;;;;16.83;2.90;;;7.00;99.90;;;;;;4949996;28;20045;-79
2024/01/23 01:22:57;;;;;;;14.45;2.85;;;7.00;99.90;;;;;;4951881;28;20039;-78
2024/01/23 01:25:24;;;;;;;11.10;1.85;;;7.00;99.90;;;;;;4956502;28;20270;-78
2024/01/23 01:27:50;;;;;;;14.32;1.70;;;7.00;99.90;;;;;;4965987;28;20052;-78
2024/01/23 01:30:16;;;;;;;13.13;1.92;;;7.10;99.90;;;;;;4967358;28;20026;-78
2024/01/23 01:32:41;;;;;;;21.98;2.53;;;7.00;99.90;;;;;;4947966;28;20163;-79
2024/01/23 01:35:07;;;;;;;20.00;3.30;;;7.00;99.90;;;;;;4963491;28;20034;-78
2024/01/23 01:37:33;;;;;;;11.70;2.90;;;7.00;99.90;;;;;;4979368;28;20034;-78
2024/01/23 01:39:58;;;;;;;18.38;2.90;;;7.00;99.90;;;;;;4979018;28;20633;-78
2024/01/23 01:42:24;;;;;;;17.15;2.13;;;7.00;99.90;;;;;;4951208;28;20034;-78
2024/01/23 01:44:50;;;;;;;13.95;2.38;;;7.00;99.90;;;;;;4979036;28;20516;-78
2024/01/23 01:47:16;;;;;;;21.10;2.45;;;6.90;99.90;;;;;;4958689;28;20031;-78
2024/01/23 01:49:42;;;;;;;14.25;2.47;;;6.90;99.90;;;;;;4950955;28;20513;-78
2024/01/23 01:52:07;;;;;;;15.38;1.80;;;6.90;99.90;;;;;;4967047;28;20031;-78
2024/01/23 01:54:33;;;;;;;13.55;3.55;;;6.90;99.90;;;;;;4973849;28;20038;-78
2024/01/23 01:57:00;;;;;;;16.58;2.00;;;6.80;99.90;;;;;;4967161;28;20177;-78
2024/01/23 01:59:26;;;;;;;14.73;2.25;;;6.90;99.90;;;;;;4977010;28;20022;-79
2024/01/23 02:01:52;;;;;;;18.88;3.60;;;6.90;99.90;;;;;;4981054;28;20042;-79
2024/01/23 02:04:18;;;;;;;15.30;2.03;;;6.90;99.90;;;;;;4965240;28;20385;-79
2024/01/23 02:06:43;;;;;;;16.80;3.13;;;6.80;99.90;;;;;;4950380;28;20034;-79
2024/01/23 02:09:11;;;;;;;11.27;2.67;;;6.80;99.90;;;;;;4965965;28;20130;-79
2024/01/23 02:11:36;;;;;;;8.60;1.38;;;6.70;99.90;;;;;;4946704;28;20176;-79
2024/01/23 02:14:02;;;;;;;16.30;3.15;;;6.80;99.90;;;;;;4968241;28;20081;-79
2024/01/23 02:16:28;;;;;;;13.05;2.22;;;6.70;99.90;;;;;;4963214;28;20046;-79
2024/01/23 02:18:53;;;;;;;16.48;2.75;;;6.70;99.90;;;;;;4966124;28;20442;-79
2024/01/23 02:21:19;;;;;;;24.48;4.07;;;6.70;99.90;;;;;;4973506;28;20031;-79
2024/01/23 02:23:44;;;;;;;14.60;1.85;;;6.70;99.90;;;;;;4968739;28;20424;-80
2024/01/23 02:26:13;;;;;;;21.05;2.65;;;6.70;99.90;;;;;;4950069;28;20035;-80
2024/01/23 02:28:39;;;;;;;15.27;2.60;;;6.60;99.90;;;;;;4980386;28;20046;-79
2024/01/23 02:31:04;;;;;;;19.33;2.60;;;6.60;99.90;;;;;;4967875;28;20031;-80
2024/01/23 02:33:30;;;;;;;17.60;2.67;;;6.60;99.90;;;;;;4976470;28;20077;-80
2024/01/23 02:35:55;;;;;;;22.83;2.67;;;6.50;99.90;;;;;;4973447;28;20169;-79
2024/01/23 02:38:21;;;;;;;8.23;1.98;;;6.60;99.90;;;;;;4959744;28;20034;-79
2024/01/23 02:40:46;;;;;;;18.15;2.97;;;6.60;99.90;;;;;;4947694;28;20043;-79
2024/01/23 02:43:12;;;;;;;21.40;2.70;;;6.50;99.90;;;;;;4980043;28;20089;-79
2024/01/23 02:45:38;;;;;;;14.85;1.90;;;6.60;99.90;;;;;;4954628;28;20383;-78
2024/01/23 02:48:03;;;;;;;12.05;2.38;;;6.50;99.90;;;;;;4964156;28;20332;-79
2024/01/23 02:50:29;;;;;;;8.18;2.25;;;6.60;99.90;;;;;;4964375;28;20369;-79
2024/01/23 02:52:55;;;;;;;17.65;2.95;;;6.50;99.90;;;;;;4967449;28;20026;-79
2024/01/23 02:55:20;;;;;;;15.52;3.20;;;6.50;99.90;;;;;;4948364;28;20038;-78
2024/01/23 02:57:46;;;;;;;10.80;1.70;;;6.50;99.90;;;;;;4947487;28;20132;-78
2024/01/23 03:00:12;;;;;;;19.88;2.30;;;6.50;99.90;;;;;;4965676;28;20415;-78
2024/01/23 03:02:37;;;;;;;15.25;2.90;;;6.60;99.90;;;;;;4960083;28;20683;-78
2024/01/23 03:05:03;;;;;;;19.17;2.47;;;6.60;99.90;;;;;;4966867;28;20046;-78
2024/01/23 03:07:28;;;;;;;15.13;2.50;;;6.60;99.90;;;;;;4964633;28;20042;-78
2024/01/23 03:09:54;;;;;;;12.98;1.98;;;6.60;99.90;;;;;;4964548;28;20037;-79
2024/01/23 03:12:21;;;;;;;19.70;3.90;;;6.60;99.90;;;;;;4957979;28;20148;-78
2024/01/23 03:14:47;;;;;;;12.82;1.50;;;6.50;99.90;;;;;;4963528;28;20046;-78
2024/01/23 03:17:13;;;;;;;12.68;2.08;;;6.50;99.90;;;;;;4957579;28;20031;-78
2024/01/23 03:19:39;;;;;;;17.60;2.00;;;6.40;99.90;;;;;;4980390;28;20030;-77
2024/01/23 03:22:05;;;;;;;12.10;1.70;;;6.60;99.90;;;;;;4963471;28;20046;-78
2024/01/23 03:24:31;;;;;;;11.52;1.42;;;6.60;99.90;;;;;;4965586;28;20038;-78
2024/01/23 03:26:56;;;;;;;13.02;1.83;;;6.60;99.90;;;;;;4963100;28;20530;-78
2024/01/23 03:29:24;;;;;;;16.27;3.47;;;6.50;99.90;;;;;;4964643;28;20037;-78
2024/01/23 03:31:49;;;;;;;18.40;2.85;;;6.60;99.90;;;;;;4963343;28;20033;-77
2024/01/23 03:34:15;;;;;;;13.57;1.70;;;6.60;99.90;;;;;;4979335;28;20026;-78
2024/01/23 03:36:41;;;;;;;18.33;1.63;;;6.50;99.90;;;;;;4947561;28;20022;-78
2024/01/23 03:39:06;;;;;;;11.45;1.70;;;6.60;99.90;;;;;;4978721;28;20084;-78
2024/01/23 03:41:32;;;;;;;12.82;1.75;;;6.60;99.90;;;;;;4946902;28;20061;-78
2024/01/23 03:43:58;;;;;;;12.80;1.23;;;6.60;99.90;;;;;;4947670;28;20026;-77
2024/01/23 03:46:23;;;;;;;21.63;2.72;;;6.50;99.90;;;;;;4948842;28;20035;-78
2024/01/23 03:48:49;;;;;;;19.40;2.15;;;6.60;99.90;;;;;;4964641;28;20502;-78
2024/01/23 03:51:14;;;;;;;17.02;1.75;;;6.60;99.90;;;;;;4965076;28;20029;-78
2024/01/23 03:53:40;;;;;;;6.03;1.60;;;6.60;99.90;;;;;;4963803;28;20525;-78
2024/01/23 03:56:06;;;;;;;9.85;2.15;;;6.60;99.90;;;;;;4948956;28;20030;-78
2024/01/23 03:58:31;;;;;;;9.60;1.38;;;6.70;99.90;;;;;;4944607;28;20031;-77
2024/01/23 04:00:59;;;;;;;5.22;1.33;;;6.70;99.90;;;;;;4980567;28;20037;-77
2024/01/23 04:03:25;;;;;;;15.93;2.08;;;6.70;99.90;;;;;;4964636;28;20054;-78
2024/01/23 04:05:51;;;;;;;12.93;2.08;;;6.70;99.90;;;;;;4957914;28;20049;-77
2024/01/23 04:08:16;;;;;;;20.88;4.10;;;6.60;99.90;;;;;;4947418;28;20053;-77
2024/01/23 04:10:42;;;;;;;8.18;1.42;;;6.70;99.90;;;;;;4960944;28;20390;-77
2024/01/23 04:13:07;;;;;;;18.00;2.97;;;6.70;99.90;;;;;;4961973;28;20038;-79
2024/01/23 04:15:33;;;;;;;13.77;1.58;;;6.70;99.90;;;;;;4946730;28;20031;-78
2024/01/23 04:17:58;;;;;;;8.45;2.17;;;6.60;99.90;;;;;;4964075;28;20049;-78
2024/01/23 04:20:24;;;;;;;13.63;2.17;;;6.60;99.90;;;;;;4978071;28;20035;-80
2024/01/23 04:22:49;;;;;;;11.75;1.90;;;6.60;99.90;;;;;;4964843;28;20521;-79
2024/01/23 04:25:15;;;;;;;8.68;1.65;;;6.60;99.90;;;;;;4978570;28;20027;-78
2024/01/23 04:27:41;;;;;;;13.88;1.38;;;6.50;99.90;;;;;;4973418;28;20071;-78
2024/01/23 04:30:07;;;;;;;12.75;1.55;;;6.50;99.90;;;;;;4973881;28;20470;-79
2024/01/23 04:32:32;;;;;;;9.80;1.23;;;6.50;99.90;;;;;;4977135;28;20566;-78
2024/01/23 04:34:58;;;;;;;15.63;2.00;;;6.50;99.90;;;;;;4978850;28;20076;-78
2024/01/23 04:37:24;;;;;;;23.77;2.67;;;6.50;99.90;;;;;;4975753;28;20109;-78
2024/01/23 04:39:49;;;;;;;10.77;1.92;;;6.50;99.90;;;;;;4964262;28;20023;-78
2024/01/23 04:42:15;;;;;;;10.77;2.00;;;6.40;99.90;;;;;;4947744;28;20177;-78
2024/01/23 04:44:40;;;;;;;14.30;1.60;;;6.50;99.90;;;;;;4963180;28;20049;-78
2024/01/23 04:47:07;;;;;;;11.63;2.03;;;6.40;99.90;;;;;;4980436;28;20035;-78
2024/01/23 04:49:32;;;;;;;13.35;1.92;;;6.40;99.90;;;;;;4957427;28;20031;-78
2024/01/23 04:51:58;;;;;;;9.10;2.47;;;6.30;99.90;;;;;;4965797;28;20041;-79
2024/01/23 04:54:23;;;;;;;13.10;2.25;;;6.30;99.90;;;;;;4970383;28;20127;-78
2024/01/23 04:56:49;;;;;;;6.88;1.27;;;6.30;99.90;;;;;;4961382;28;20042;-78
2024/01/23 04:59:15;;;;;;;11.02;2.15;;;6.30;99.90;;;;;;4983388;28;20545;-78
2024/01/23 05:01:40;;;;;;;8.60;2.05;;;6.30;99.90;;;;;;4949429;28;20031;-79
2024/01/23 05:04:06;;;;;;;6.35;1.55;;;6.40;99.90;;;;;;4971206;28;20038;-78
2024/01/23 05:06:31;;;;;;;15.57;2.20;;;6.40;99.90;;;;;;4978095;28;20411;-79
2024/01/23 05:08:57;;;;;;;10.35;1.63;;;6.30;99.90;;;;;;4983779;28;20439;-79
2024/01/23 05:11:23;;;;;;;8.00;1.10;;;6.40;99.90;;;;;;4980083;28;20080;-78
2024/01/23 05:13:48;;;;;;;9.82;2.03;;;6.40;99.90;;;;;;4966557;28;20046;-78
2024/01/23 05:16:14;;;;;;;13.32;2.22;;;6.40;99.90;;;;;;4966280;28;20107;-79
2024/01/23 05:18:40;;;;;;;11.73;1.67;;;6.40;99.90;;;;;;4977501;28;20030;-78
2024/01/23 05:21:05;;;;;;;13.55;1.85;;;6.40;99.90;;;;;;4951170;28;20031;-78
2024/01/23 05:23:31;;;;;;;3.17;1.02;;;6.30;99.90;;;;;;4982322;28;20038;-78
2024/01/23 05:25:56;;;;;;;9.93;1.60;;;6.30;99.90;;;;;;4966263;28;20046;-78
2024/01/23 05:28:22;;;;;;;9.88;1.50;;;6.30;99.90;;;;;;4981923;28;20042;-78
2024/01/23 05:30:47;;;;;;;13.35;2.15;;;6.30;99.90;;;;;;4965968;28;20167;-78
2024/01/23 05:33:13;;;;;;;25.10;4.13;;;6.30;99.90;;;;;;4967388;28;20114;-78
2024/01/23 05:35:39;;;;;;;8.93;2.47;;;6.30;99.90;;;;;;4978346;28;20200;-78
2024/01/23 05:38:04;;;;;;;6.90;2.53;;;6.20;99.90;;;;;;4982578;28;20037;-78
2024/01/23 05:40:30;;;;;;;9.02;1.25;;;6.20;99.90;;;;;;4982423;28;20502;-78
2024/01/23 05:42:55;;;;;;;7.72;1.15;;;6.10;99.90;;;;;;4976341;28;20510;-78
2024/01/23 05:45:21;;;;;;;7.00;1.98;;;6.10;99.90;;;;;;4964937;28;20034;-79
2024/01/23 05:47:46;;;;;;;7.55;1.73;;;6.10;99.90;;;;;;4963022;28;20050;-78
2024/01/23 05:50:12;;;;;;;9.32;2.33;;;6.00;99.90;;;;;;4965886;28;20022;-78
2024/01/23 05:52:37;;;;;;;13.82;1.95;;;6.00;99.90;;;;;;4950002;28;20026;-79
2024/01/23 05:55:03;;;;;;;13.18;2.05;;;6.00;99.90;;;;;;4964326;28;20043;-78
2024/01/23 05:57:29;;;;;;;21.42;2.38;;;5.90;99.90;;;;;;4954921;28;20042;-78
2024/01/23 05:59:55;;;;;;;14.30;2.10;;;5.90;99.90;;;;;;4965141;28;20073;-78
2024/01/23 06:02:20;;;;;;;12.65;3.47;;;5.80;99.90;;;;;;4978662;28;20457;-78
2024/01/23 06:04:46;;;;;;;17.95;2.78;;;6.00;99.90;;;;;;4962734;28;20034;-78
2024/01/23 06:07:12;;;;;;;13.63;2.92;;;5.80;99.90;;;;;;4957503;28;20833;-78
2024/01/23 06:09:37;;;;;;;16.50;2.42;;;5.80;99.90;;;;;;4956907;28;20088;-78
2024/01/23 06:12:03;;;;;;;17.60;2.05;;;5.90;99.90;;;;;;4981469;28;20046;-78
2024/01/23 06:14:30;;;;;;;14.00;2.17;;;5.90;99.90;;;;;;4958155;28;20154;-79
2024/01/23 06:16:56;;;;;;;9.98;1.48;;;5.80;99.90;;;;;;4972314;28;20035;-80
2024/01/23 06:19:22;;;;;;;16.38;2.15;;;5.80;99.90;;;;;;4977657;28;20072;-79
2024/01/23 06:21:48;;;;;;;11.23;1.92;;;5.70;99.90;;;;;;4961684;28;20031;-78
2024/01/23 06:24:13;;;;;;;18.73;2.28;;;5.70;99.90;;;;;;4963845;28;20041;-78
2024/01/23 06:26:39;;;;;;;8.40;2.55;;;5.60;99.90;;;;;;4967781;28;20042;-78
2024/01/23 06:29:04;;;;;;;11.25;1.60;;;5.60;99.90;;;;;;4979004;28;20042;-79
2024/01/23 06:31:30;;;;;;;12.60;2.95;;;5.60;99.90;;;;;;4979721;28;20058;-78
2024/01/23 06:33:56;;;;;;;8.82;1.80;;;5.50;99.90;;;;;;4965659;28;20419;-79
2024/01/23 06:36:21;;;;;;;7.95;2.63;;;5.50;99.90;;;;;;4948509;28;20093;-77
2024/01/23 06:38:47;;;;;;;15.75;2.38;;;5.50;99.90;;;;;;4963055;28;20042;-79
2024/01/23 06:41:13;;;;;;;19.42;2.53;;;5.60;99.90;;;;;;4959222;28;20049;-78
2024/01/23 06:43:38;;;;;;;12.45;1.60;;;5.40;99.90;;;;;;4974786;28;20045;-78
2024/01/23 06:46:04;;;;;;;7.82;0.85;;;5.40;99.90;;;;;;4964108;28;20517;-78
2024/01/23 06:48:32;;;;;;;14.65;3.63;;;5.50;99.90;;;;;;4962950;28;20035;-77
2024/01/23 06:50:58;;;;;;;9.13;1.27;;;5.50;99.90;;;;;;4950333;28;20076;-78
2024/01/23 06:53:23;;;;;;;10.18;2.35;;;5.40;99.90;;;;;;4977087;28;20038;-77
2024/01/23 06:55:49;;;;;;;15.90;1.95;;;5.40;99.90;;;;;;4955546;28;20418;-78
2024/01/23 06:58:15;;;;;;;19.73;3.22;;;5.40;99.90;;;;;;4974636;28;20541;-80
2024/01/23 07:00:41;;;;;;;7.53;1.67;;;5.30;99.90;;;;;;4979668;28;20054;-78
2024/01/23 07:03:08;;;;;;;12.60;1.73;;;5.40;99.90;;;;;;4976592;28;20061;-78
2024/01/23 07:05:34;;;;;;;15.65;3.22;;;5.40;99.90;;;;;;4961290;28;20034;-79
2024/01/23 07:07:59;;;;;;;13.00;2.83;;;5.40;99.90;;;;;;4980406;28;20556;-78
2024/01/23 07:10:25;;;;;;;7.32;1.35;;;5.40;99.90;;;;;;4964317;28;20049;-78
2024/01/23 07:12:50;;;;;;;21.70;2.53;;;5.40;99.90;;;;;;4977289;28;20416;-78
2024/01/23 07:15:16;;;;;;;4.97;1.33;;;5.40;99.90;;;;;;4976769;28;20038;-78
2024/01/23 07:17:41;;;;;;;11.88;2.10;;;5.30;99.90;;;;;;4966312;28;20034;-78
2024/01/23 07:20:10;;;;;;;7.82;1.45;;;5.40;99.90;;;;;;4962400;28;20526;-78
2024/01/23 07:22:35;;;;;;;13.93;1.88;;;5.40;99.90;;;;;;4977852;28;20454;-77
2024/01/23 07:25:01;;;;;;;10.38;1.42;;;5.40;99.90;;;;;;4977223;28;20058;-77
2024/01/23 07:27:27;;;;;;;10.15;1.48;;;5.40;99.90;;;;;;4970845;28;20058;-77
2024/01/23 07:29:52;;;;;;;19.23;2.00;;;5.50;99.90;;;;;;4960017;28;20110;-77
2024/01/23 07:32:18;;;;;;;7.60;1.45;;;5.50;99.90;;;;;;4964429;28;20106;-78
2024/01/23 07:34:43;;;;;;;13.55;2.17;;;5.40;99.90;;;;;;4943344;28;20097;-77
2024/01/23 07:37:09;;;;;;;8.98;1.98;;;5.40;99.90;;;;;;4975643;28;20034;-78
2024/01/23 07:39:35;;;;;;;18.88;2.70;;;5.30;99.90;;;;;;4978470;28;20035;-77
2024/01/23 07:42:00;;;;;;;6.80;1.20;;;5.30;99.90;;;;;;4963571;28;20038;-77
2024/01/23 07:44:26;;;;;;;6.78;1.60;;;5.30;99.90;;;;;;4961018;28;20375;-77
2024/01/23 07:46:51;;;;;;;7.72;1.50;;;5.30;99.90;;;;;;4978017;28;20395;-78
2024/01/23 07:49:17;;;;;;;6.70;1.30;;;5.30;99.90;;;;;;4978399;28;20038;-77
2024/01/23 07:51:49;;;;;;;9.07;2.92;;;5.40;99.90;;;;;;4978244;28;20041;-78
2024/01/23 07:54:14;;;;;;;13.07;1.95;;;5.40;99.90;;;;;;4979139;28;20483;-77
2024/01/23 07:56:40;;;;;;;13.60;2.40;;;5.40;99.90;;;;;;4973605;28;20038;-78
2024/01/23 07:59:05;;;;;;;4.60;1.55;;;5.40;99.90;;;;;;4977265;28;20037;-77
2024/01/23 08:01:31;;;;;;;8.07;1.63;;;5.40;99.90;;;;;;4956596;28;20038;-78
2024/01/23 08:03:57;;;;;;;18.98;1.88;;;5.30;99.90;;;;;;4962026;28;20035;-78
2024/01/23 08:06:23;;;;;;;8.43;1.95;;;5.40;99.90;;;;;;4978616;28;20521;-78
2024/01/23 08:08:50;;;;;;;20.20;3.10;;;5.40;99.90;;;;;;4978316;28;20027;-78
2024/01/23 08:11:15;;;;;;;8.52;1.77;;;5.40;99.90;;;;;;4963593;28;20049;-78
2024/01/23 08:13:41;;;;;;;10.43;1.20;;;5.40;99.90;;;;;;4979027;28;20537;-78
2024/01/23 08:16:10;;;;;;;11.57;1.92;;;5.40;99.90;;;;;;4974518;28;20229;-79
2024/01/23 08:18:37;;;;;;;15.68;3.28;;;5.40;99.90;;;;;;4960083;28;20038;-78
2024/01/23 08:21:03;;;;;;;15.27;1.88;;;5.40;99.90;;;;;;4961671;28;20778;-77
2024/01/23 08:23:29;;;;;;;13.88;2.58;;;5.40;99.90;;;;;;4960515;28;20419;-78
2024/01/23 08:25:55;;;;;;;10.70;2.03;;;5.40;99.90;;;;;;4976115;28;20027;-78
2024/01/23 08:28:22;;;;;;;14.23;2.53;;;5.40;99.90;;;;;;4958912;28;20042;-77
2024/01/23 08:30:48;;;;;;;10.38;1.98;;;5.50;99.90;;;;;;4978367;28;20138;-78
2024/01/23 08:33:17;;;;;;;15.73;2.10;;;5.60;99.90;;;;;;4972095;28;20037;-78
2024/01/23 08:35:44;;;;;;;15.38;2.65;;;5.60;99.90;;;;;;4961969;28;20517;-78
2024/01/23 08:38:10;;;;;;;19.85;2.33;;;5.60;99.90;;;;;;4963805;28;20197;-78
2024/01/23 08:40:35;;;;;;;19.75;2.17;;;5.50;99.90;;;;;;4943317;28;20030;-78
2024/01/23 08:43:01;;;;;;;3.95;0.77;;;5.50;99.90;;;;;;4978665;28;20467;-78
2024/01/23 08:45:27;;;;;;;3.97;1.58;;;5.60;99.90;;;;;;4958948;28;20145;-78
2024/01/23 08:47:52;;;;;;;19.80;2.55;;;5.60;99.90;;;;;;4976745;28;20113;-80
2024/01/23 08:50:18;;;;;;;11.55;2.45;;;5.60;99.90;;;;;;4979184;28;20034;-79
2024/01/23 08:52:45;;;;;;;13.80;2.47;;;5.70;99.90;;;;;;4973627;28;20069;-78
2024/01/23 08:55:10;;;;;;;18.30;2.38;;;5.70;99.90;;;;;;4980290;28;20165;-78
2024/01/23 08:57:36;;;;;;;21.95;3.80;;;5.80;99.90;;;;;;4966424;28;20117;-77
2024/01/23 09:00:02;;;;;;;15.07;2.05;;;5.70;99.90;;;;;;4975480;28;20033;-79
2024/01/23 09:02:28;;;;;;;9.68;2.00;;;5.80;99.90;;;;;;4976259;28;20034;-78
2024/01/23 09:04:53;;;;;;;11.35;1.95;;;5.80;99.90;;;;;;4977175;28;20023;-78
2024/01/23 09:07:22;;;;;;;6.35;1.50;;;6.00;99.90;;;;;;4977864;28;20117;-78
2024/01/23 09:09:50;;;;;;;17.50;2.42;;;6.10;99.90;;;;;;4977415;28;20046;-78
2024/01/23 09:12:20;;;;;;;8.68;2.33;;;6.20;99.90;;;;;;4967120;28;20037;-78
2024/01/23 09:14:46;;;;;;;16.23;2.17;;;6.20;99.90;;;;;;4975668;28;20125;-78
2024/01/23 09:17:12;;;;;;;5.13;1.70;;;6.40;99.90;;;;;;4976778;28;20166;-79
2024/01/23 09:19:37;;;;;;;10.85;1.88;;;6.30;99.90;;;;;;4962644;28;20105;-77
2024/01/23 09:22:04;;;;;;;12.68;1.67;;;6.30;99.90;;;;;;4977871;28;20037;-77
2024/01/23 09:24:29;;;;;;;13.45;1.75;;;6.40;99.90;;;;;;4970085;28;20034;-77
2024/01/23 09:26:59;;;;;;;14.10;2.58;;;6.50;99.90;;;;;;4976398;28;20627;-77
2024/01/23 09:29:28;;;;;;;17.55;3.63;;;6.50;99.90;;;;;;4976672;28;20069;-76
2024/01/23 09:31:53;;;;;;;15.07;2.33;;;6.60;99.90;;;;;;4976496;28;20031;-77
2024/01/23 09:34:19;;;;;;;17.35;2.53;;;6.80;99.90;;;;;;4977420;28;20038;-76
2024/01/23 09:36:45;;;;;;;14.70;2.53;;;6.80;99.90;;;;;;4950025;28;20111;-76
2024/01/23 09:39:13;;;;;;;8.73;1.35;;;6.80;99.90;;;;;;4952254;28;20024;-77
2024/01/23 09:41:50;;;;;;;11.15;1.90;;;7.00;99.90;;;;;;4984619;28;20038;-76
2024/01/23 09:44:16;;;;;;;10.63;1.52;;;6.90;99.90;;;;;;4941657;28;20031;-77
2024/01/23 09:46:44;;;;;;;14.27;2.70;;;7.10;99.90;;;;;;4967774;28;20113;-77
2024/01/23 09:49:10;;;;;;;8.70;1.45;;;7.10;99.90;;;;;;4951573;28;20046;-77
2024/01/23 09:51:35;;;;;;;19.27;3.05;;;7.20;99.90;;;;;;4964480;28;20472;-77
2024/01/23 09:54:01;;;;;;;15.13;2.45;;;7.20;99.90;;;;;;4949209;28;20035;-77
2024/01/23 09:56:27;;;;;;;15.00;3.58;;;7.30;99.90;;;;;;4967173;28;20688;-77
2024/01/23 09:58:53;;;;;;;6.50;1.35;;;7.30;99.90;;;;;;4978940;28;20121;-77
2024/01/23 10:01:18;;;;;;;11.18;1.92;;;7.50;99.90;;;;;;4967993;28;20055;-77
2024/01/23 10:03:48;;;;;;;11.48;2.63;;;7.40;99.90;;;;;;4963652;28;20092;-76
2024/01/23 10:06:14;;;;;;;18.13;3.63;;;7.70;99.90;;;;;;4946551;28;20034;-77
2024/01/23 10:08:40;;;;;;;11.63;1.85;;;7.80;99.90;;;;;;4980199;28;20073;-77
2024/01/23 10:11:05;;;;;;;11.18;1.70;;;7.60;99.90;;;;;;4979658;28;20049;-79
2024/01/23 10:13:31;;;;;;;18.33;2.80;;;7.80;99.90;;;;;;4963923;28;20038;-78
2024/01/23 10:15:57;;;;;;;11.45;2.03;;;7.80;99.90;;;;;;4978841;28;20558;-78
2024/01/23 10:18:23;;;;;;;13.70;2.45;;;7.90;99.90;;;;;;4980617;28;20053;-78
2024/01/23 10:20:51;;;;;;;10.25;2.42;;;7.70;99.90;;;;;;4960305;28;20039;-78
2024/01/23 10:23:17;;;;;;;14.93;2.72;;;8.00;99.90;;;;;;4964393;28;20507;-78
2024/01/23 10:25:42;;;;;;;20.25;3.03;;;7.90;99.90;;;;;;4976791;28;20034;-78
2024/01/23 10:28:08;;;;;;;13.38;2.17;;;7.90;99.90;;;;;;4965347;28;20161;-78
2024/01/23 10:30:36;;;;;;;22.58;2.40;;;7.90;99.90;;;;;;4978373;28;20040;-78
2024/01/23 10:33:03;;;;;;;7.90;1.65;;;8.10;99.90;;;;;;4962326;28;20112;-78
2024/01/23 10:35:33;;;;;;;19.45;3.97;;;8.30;99.90;;;;;;4974643;28;20034;-78
2024/01/23 10:37:59;;;;;;;8.45;2.30;;;8.20;99.90;;;;;;4980067;28;21161;-78
2024/01/23 10:40:24;;;;;;;10.15;1.77;;;8.10;99.90;;;;;;4963389;28;20050;-78
2024/01/23 10:42:50;;;;;;;11.38;2.28;;;8.40;99.90;;;;;;4979750;28;20065;-78
2024/01/23 10:45:16;;;;;;;11.82;2.25;;;8.40;99.90;;;;;;4981260;28;20089;-79
2024/01/23 10:47:42;;;;;;;8.38;2.10;;;8.70;99.90;;;;;;4977519;28;20327;-77
2024/01/23 10:50:08;;;;;;;21.05;2.17;;;8.60;99.90;;;;;;4965164;28;20034;-78
2024/01/23 10:52:37;;;;;;;15.75;2.88;;;8.80;99.90;;;;;;4964534;28;20122;-78
2024/01/23 10:55:04;;;;;;;12.27;2.38;;;8.70;99.90;;;;;;4974908;28;20031;-78
2024/01/23 10:57:30;;;;;;;12.45;3.00;;;8.70;99.90;;;;;;4979667;28;20508;-77
2024/01/23 10:59:55;;;;;;;10.30;2.22;;;8.80;99.90;;;;;;4965088;28;20027;-77
2024/01/23 11:02:34;;;;;;;12.75;2.80;;;8.80;99.90;;;;;;4979469;28;20034;-78
2024/01/23 11:05:00;;;;;;;23.33;3.00;;;8.80;99.90;;;;;;4961944;28;20059;-78
2024/01/23 11:07:48;;;;;;;16.70;3.50;;;8.70;99.90;;;;;;4978208;28;20038;-78
2024/01/23 11:10:30;;;;;;;6.88;1.27;;;8.80;99.90;;;;;;4977927;28;20030;-78
2024/01/23 11:13:17;;;;;;;15.85;2.55;;;9.00;99.90;;;;;;4976610;28;20039;-79
2024/01/23 11:15:43;;;;;;;20.98;4.43;;;9.20;99.90;;;;;;4978008;28;20031;-79
2024/01/23 11:18:37;;;;;;;16.30;2.35;;;9.30;99.90;;;;;;4962592;28;20084;-78
2024/01/23 11:21:09;;;;;;;12.80;1.65;;;9.40;99.90;;;;;;4971750;28;20034;-79
2024/01/23 11:23:37;;;;;;;11.07;3.17;;;9.40;99.90;;;;;;4970151;28;20026;-77
2024/01/23 11:26:16;;;;;;;14.85;2.58;;;9.30;99.90;;;;;;4971176;28;20041;-78
2024/01/23 11:28:44;;;;;;;8.35;1.75;;;9.30;99.90;;;;;;4974411;28;20042;-77
2024/01/23 11:31:13;;;;;;;13.38;3.25;;;9.30;99.90;;;;;;4949416;28;20043;-77
2024/01/23 11:33:41;;;;;;;8.00;2.42;;;9.50;99.90;;;;;;4959362;28;20094;-77
2024/01/23 11:36:14;;;;;;;12.48;2.30;;;9.60;99.90;;;;;;4964863;28;20030;-76
2024/01/23 11:38:47;;;;;;;23.88;2.75;;;9.70;99.90;;;;;;4977024;28;20042;-76
2024/01/23 11:41:23;;;;;;;16.02;2.35;;;9.60;99.90;;;;;;4974375;28;20165;-77
2024/01/23 11:43:50;;;;;;;21.15;3.25;;;9.60;99.90;;;;;;4944236;28;20046;-77
2024/01/23 11:46:18;;;;;;;18.98;3.47;;;9.70;99.90;;;;;;4964614;28;20044;-77
2024/01/23 11:48:44;;;;;;;11.75;2.45;;;9.80;99.90;;;;;;4961459;28;20653;-76
2024/01/23 11:51:13;;;;;;;13.57;2.45;;;9.60;99.90;;;;;;4948899;28;20097;-77
2024/01/23 11:53:40;;;;;;;18.52;2.97;;;9.90;99.90;;;;;;4963582;28;20038;-77
2024/01/23 11:56:05;;;;;;;18.50;2.47;;;9.80;99.90;;;;;;4962821;28;20097;-77
2024/01/23 11:58:31;;;;;;;17.45;2.33;;;10.00;99.90;;;;;;4959524;28;20487;-77
2024/01/23 12:00:57;;;;;;;16.15;3.35;;;10.10;99.90;;;;;;4979771;28;20089;-77
2024/01/23 12:03:22;;;;;;;15.30;2.63;;;10.00;99.90;;;;;;4976684;28;20495;-77
2024/01/23 12:05:48;;;;;;;9.05;2.13;;;9.90;99.90;;;;;;4973970;28;20036;-78
2024/01/23 12:08:14;;;;;;;24.85;4.35;;;9.80;99.90;;;;;;4973644;28;20039;-78
2024/01/23 12:10:39;;;;;;;12.98;3.38;;;10.00;99.90;;;;;;4979328;28;20608;-77
2024/01/23 12:13:06;;;;;;;15.27;3.30;;;10.00;99.90;;;;;;4960681;28;20023;-77
2024/01/23 12:15:32;;;;;;;9.80;2.95;;;9.90;99.90;;;;;;4945632;28;20030;-77
2024/01/23 12:17:57;;;;;;;14.45;3.05;;;10.10;99.90;;;;;;4961679;28;20137;-77
2024/01/23 12:20:23;;;;;;;17.52;3.78;;;10.20;99.90;;;;;;4977184;28;20439;-78
2024/01/23 12:22:49;;;;;;;11.45;2.70;;;10.30;99.90;;;;;;4972466;28;20047;-78
2024/01/23 12:25:15;;;;;;;11.85;1.92;;;9.90;99.90;;;;;;4946766;28;20065;-77
2024/01/23 12:27:42;;;;;;;17.80;2.92;;;10.10;99.90;;;;;;4961423;28;20051;-77
2024/01/23 12:30:17;;;;;;;10.00;1.25;;;10.20;99.90;;;;;;4977474;28;20034;-77
2024/01/23 12:32:47;;;;;;;19.88;3.17;;;10.30;99.90;;;;;;4963102;28;20092;-77
2024/01/23 12:35:12;;;;;;;14.77;1.90;;;10.20;99.90;;;;;;4977381;28;20092;-77
2024/01/23 12:37:38;;;;;;;13.18;1.83;;;10.10;99.90;;;;;;4963281;28;20030;-77
2024/01/23 12:40:13;;;;;;;13.68;2.20;;;10.20;99.90;;;;;;4974300;28;20431;-77
2024/01/23 12:42:40;;;;;;;13.68;2.47;;;10.20;99.90;;;;;;4960974;28;20027;-77
2024/01/23 12:45:12;;;;;;;9.52;2.08;;;10.20;99.90;;;;;;4977551;28;20505;-77